sensor_id;sensor_type;location;lat;lon;timestamp;P1;durP1;ratioP1;P2;durP2;ratioP2
47009;SDS011;59230;54.164;-3.124;2024-01-10T00:02:01;39.53;;;15.18;;
47009;SDS011;59230;54.164;-3.124;2024-01-10T00:04:26;48.13;;;16.08;;
47009;SDS011;59230;54.164;-3.124;2024-01-10T00:06:52;41.45;;;14.52;;
47009;SDS011;59230;54.164;-3.124;2024-01-10T00:09:17;56.00;;;20.58;;
47009;SDS011;59230;54.164;-3.124;2024-01-10T00:11:43;45.88;;;17.95;;
47009;SDS011;59230;54.164;-3.124;2024-01-10T00:14:11;26.50;;;9.43;;
47009;SDS011;59230;54.164;-3.124;2024-01-10T00:16:41;84.20;;;28.83;;
47009;SDS011;59230;54.164;-3.124;2024-01-10T00:19:08;12.02;;;4.60;;
47009;SDS011;59230;54.164;-3.124;2024-01-10T00:21:35;36.40;;;13.70;;
47009;SDS011;59230;54.164;-3.124;2024-01-10T00:24:01;48.17;;;17.88;;
47009;SDS011;59230;54.164;-3.124;2024-01-10T00:26:27;5.43;;;2.17;;
47009;SDS011;59230;54.164;-3.124;2024-01-10T00:28:52;2.70;;;1.27;;
47009;SDS011;59230;54.164;-3.124;2024-01-10T00:31:20;3.33;;;1.55;;
47009;SDS011;59230;54.164;-3.124;2024-01-10T00:33:47;5.10;;;1.40;;
47009;SDS011;59230;54.164;-3.124;2024-01-10T00:36:12;3.75;;;1.50;;
47009;SDS011;59230;54.164;-3.124;2024-01-10T00:38:39;3.83;;;1.33;;
47009;SDS011;59230;54.164;-3.124;2024-01-10T00:41:05;5.00;;;1.40;;
47009;SDS011;59230;54.164;-3.124;2024-01-10T00:43:33;5.18;;;1.40;;
47009;SDS011;59230;54.164;-3.124;2024-01-10T00:46:01;3.70;;;1.10;;
47009;SDS011;59230;54.164;-3.124;2024-01-10T00:48:28;5.10;;;1.58;;
47009;SDS011;59230;54.164;-3.124;2024-01-10T00:50:54;2.10;;;1.23;;
47009;SDS011;59230;54.164;-3.124;2024-01-10T00:53:20;2.20;;;1.23;;
47009;SDS011;59230;54.164;-3.124;2024-01-10T00:55:45;1.60;;;1.38;;
47009;SDS011;59230;54.164;-3.124;2024-01-10T00:58:12;3.45;;;1.42;;
47009;SDS011;59230;54.164;-3.124;2024-01-10T01:00:39;3.35;;;1.40;;
47009;SDS011;59230;54.164;-3.124;2024-01-10T01:03:06;3.47;;;1.48;;
47009;SDS011;59230;54.164;-3.124;2024-01-10T01:05:32;3.08;;;1.15;;
47009;SDS011;59230;54.164;-3.124;2024-01-10T01:07:59;2.33;;;1.10;;
47009;SDS011;59230;54.164;-3.124;2024-01-10T01:10:26;2.65;;;1.20;;
47009;SDS011;59230;54.164;-3.124;2024-01-10T01:12:52;4.72;;;1.60;;
47009;SDS011;59230;54.164;-3.124;2024-01-10T01:15:20;2.22;;;1.40;;
47009;SDS011;59230;54.164;-3.124;2024-01-10T01:17:47;1.30;;;1.00;;
47009;SDS011;59230;54.164;-3.124;2024-01-10T01:20:14;2.83;;;1.02;;
47009;SDS011;59230;54.164;-3.124;2024-01-10T01:22:42;2.72;;;1.05;;
47009;SDS011;59230;54.164;-3.124;2024-01-10T01:25:09;1.55;;;1.10;;
47009;SDS011;59230;54.164;-3.124;2024-01-10T01:27:36;1.50;;;1.10;;
47009;SDS011;59230;54.164;-3.124;2024-01-10T01:30:01;1.30;;;1.10;;
47009;SDS011;59230;54.164;-3.124;2024-01-10T01:32:28;1.42;;;0.90;;
47009;SDS011;59230;54.164;-3.124;2024-01-10T01:34:57;1.88;;;0.85;;
47009;SDS011;59230;54.164;-3.124;2024-01-10T01:37:22;1.77;;;0.93;;
47009;SDS011;59230;54.164;-3.124;2024-01-10T01:39:48;1.45;;;1.00;;
47009;SDS011;59230;54.164;-3.124;2024-01-10T01:42:16;2.30;;;1.10;;
47009;SDS011;59230;54.164;-3.124;2024-01-10T01:44:43;3.10;;;1.00;;
47009;SDS011;59230;54.164;-3.124;2024-01-10T01:47:11;3.28;;;1.10;;
47009;SDS011;59230;54.164;-3.124;2024-01-10T01:49:37;1.02;;;0.90;;
47009;SDS011;59230;54.164;-3.124;2024-01-10T01:52:06;2.58;;;1.10;;
47009;SDS011;59230;54.164;-3.124;2024-01-10T01:54:33;2.65;;;0.90;;
47009;SDS011;59230;54.164;-3.124;2024-01-10T01:57:02;1.13;;;0.90;;
47009;SDS011;59230;54.164;-3.124;2024-01-10T01:59:28;1.30;;;0.90;;
47009;SDS011;59230;54.164;-3.124;2024-01-10T02:01:54;2.42;;;0.80;;
47009;SDS011;59230;54.164;-3.124;2024-01-10T02:04:20;4.45;;;0.95;;
47009;SDS011;59230;54.164;-3.124;2024-01-10T02:06:45;0.88;;;0.80;;
47009;SDS011;59230;54.164;-3.124;2024-01-10T02:09:11;1.02;;;0.75;;
47009;SDS011;59230;54.164;-3.124;2024-01-10T02:11:38;1.30;;;0.98;;
47009;SDS011;59230;54.164;-3.124;2024-01-10T02:14:05;1.75;;;0.90;;
47009;SDS011;59230;54.164;-3.124;2024-01-10T02:16:31;2.58;;;1.02;;
47009;SDS011;59230;54.164;-3.124;2024-01-10T02:18:57;1.92;;;0.93;;
47009;SDS011;59230;54.164;-3.124;2024-01-10T02:21:26;1.80;;;0.95;;
47009;SDS011;59230;54.164;-3.124;2024-01-10T02:23:52;2.38;;;1.00;;
47009;SDS011;59230;54.164;-3.124;2024-01-10T02:26:19;3.85;;;0.90;;
47009;SDS011;59230;54.164;-3.124;2024-01-10T02:28:44;1.00;;;0.80;;
47009;SDS011;59230;54.164;-3.124;2024-01-10T02:31:11;0.93;;;0.80;;
47009;SDS011;59230;54.164;-3.124;2024-01-10T02:33:37;1.67;;;0.73;;
47009;SDS011;59230;54.164;-3.124;2024-01-10T02:36:03;3.38;;;0.63;;
47009;SDS011;59230;54.164;-3.124;2024-01-10T02:38:30;2.60;;;1.00;;
47009;SDS011;59230;54.164;-3.124;2024-01-10T02:41:00;0.60;;;0.55;;
47009;SDS011;59230;54.164;-3.124;2024-01-10T02:43:27;5.55;;;0.60;;
47009;SDS011;59230;54.164;-3.124;2024-01-10T02:45:53;2.33;;;0.80;;
47009;SDS011;59230;54.164;-3.124;2024-01-10T02:48:20;1.00;;;0.80;;
47009;SDS011;59230;54.164;-3.124;2024-01-10T02:50:45;1.23;;;0.70;;
47009;SDS011;59230;54.164;-3.124;2024-01-10T02:53:13;2.88;;;1.00;;
47009;SDS011;59230;54.164;-3.124;2024-01-10T02:55:39;2.40;;;0.80;;
47009;SDS011;59230;54.164;-3.124;2024-01-10T02:58:05;1.88;;;1.00;;
47009;SDS011;59230;54.164;-3.124;2024-01-10T03:00:31;2.05;;;0.70;;
47009;SDS011;59230;54.164;-3.124;2024-01-10T03:02:57;1.00;;;0.90;;
47009;SDS011;59230;54.164;-3.124;2024-01-10T03:05:23;2.85;;;1.30;;
47009;SDS011;59230;54.164;-3.124;2024-01-10T03:07:49;1.20;;;0.80;;
47009;SDS011;59230;54.164;-3.124;2024-01-10T03:10:16;1.95;;;0.90;;
47009;SDS011;59230;54.164;-3.124;2024-01-10T03:12:43;2.22;;;0.85;;
47009;SDS011;59230;54.164;-3.124;2024-01-10T03:15:09;0.80;;;0.80;;
47009;SDS011;59230;54.164;-3.124;2024-01-10T03:17:35;1.17;;;0.70;;
47009;SDS011;59230;54.164;-3.124;2024-01-10T03:20:04;2.65;;;1.20;;
47009;SDS011;59230;54.164;-3.124;2024-01-10T03:22:34;1.13;;;0.88;;
47009;SDS011;59230;54.164;-3.124;2024-01-10T03:25:01;0.93;;;0.80;;
47009;SDS011;59230;54.164;-3.124;2024-01-10T03:27:27;2.90;;;0.70;;
47009;SDS011;59230;54.164;-3.124;2024-01-10T03:29:54;1.00;;;0.90;;
47009;SDS011;59230;54.164;-3.124;2024-01-10T03:32:20;23.30;;;1.55;;
47009;SDS011;59230;54.164;-3.124;2024-01-10T03:34:47;2.22;;;0.95;;
47009;SDS011;59230;54.164;-3.124;2024-01-10T03:37:17;1.13;;;0.80;;
47009;SDS011;59230;54.164;-3.124;2024-01-10T03:39:43;2.20;;;0.80;;
47009;SDS011;59230;54.164;-3.124;2024-01-10T03:42:10;2.70;;;0.70;;
47009;SDS011;59230;54.164;-3.124;2024-01-10T03:44:36;0.68;;;0.60;;
47009;SDS011;59230;54.164;-3.124;2024-01-10T03:47:01;1.70;;;0.75;;
47009;SDS011;59230;54.164;-3.124;2024-01-10T03:49:31;0.82;;;0.68;;
47009;SDS011;59230;54.164;-3.124;2024-01-10T03:51:56;1.75;;;0.80;;
47009;SDS011;59230;54.164;-3.124;2024-01-10T03:54:23;1.63;;;0.90;;
47009;SDS011;59230;54.164;-3.124;2024-01-10T03:56:50;2.70;;;2.00;;
47009;SDS011;59230;54.164;-3.124;2024-01-10T03:59:17;1.23;;;1.00;;
47009;SDS011;59230;54.164;-3.124;2024-01-10T04:01:43;1.63;;;1.00;;
47009;SDS011;59230;54.164;-3.124;2024-01-10T04:04:09;0.85;;;0.80;;
47009;SDS011;59230;54.164;-3.124;2024-01-10T04:06:34;1.23;;;0.80;;
47009;SDS011;59230;54.164;-3.124;2024-01-10T04:09:00;1.08;;;0.80;;
47009;SDS011;59230;54.164;-3.124;2024-01-10T04:11:28;0.60;;;0.60;;
47009;SDS011;59230;54.164;-3.124;2024-01-10T04:13:55;2.15;;;0.90;;
47009;SDS011;59230;54.164;-3.124;2024-01-10T04:16:21;2.28;;;0.80;;
47009;SDS011;59230;54.164;-3.124;2024-01-10T04:18:48;0.77;;;0.70;;
47009;SDS011;59230;54.164;-3.124;2024-01-10T04:21:16;1.33;;;0.90;;
47009;SDS011;59230;54.164;-3.124;2024-01-10T04:23:44;2.90;;;0.77;;
47009;SDS011;59230;54.164;-3.124;2024-01-10T04:26:11;1.40;;;0.85;;
47009;SDS011;59230;54.164;-3.124;2024-01-10T04:28:37;1.60;;;0.80;;
47009;SDS011;59230;54.164;-3.124;2024-01-10T04:31:07;1.80;;;1.42;;
47009;SDS011;59230;54.164;-3.124;2024-01-10T04:33:33;0.63;;;0.63;;
47009;SDS011;59230;54.164;-3.124;2024-01-10T04:36:00;0.88;;;0.60;;
47009;SDS011;59230;54.164;-3.124;2024-01-10T04:38:26;0.85;;;0.70;;
47009;SDS011;59230;54.164;-3.124;2024-01-10T04:40:53;1.45;;;0.90;;
47009;SDS011;59230;54.164;-3.124;2024-01-10T04:43:19;2.10;;;0.70;;
47009;SDS011;59230;54.164;-3.124;2024-01-10T04:45:45;1.42;;;0.65;;
47009;SDS011;59230;54.164;-3.124;2024-01-10T04:48:12;3.40;;;0.65;;
47009;SDS011;59230;54.164;-3.124;2024-01-10T04:50:37;1.73;;;0.60;;
47009;SDS011;59230;54.164;-3.124;2024-01-10T04:53:04;0.70;;;0.70;;
47009;SDS011;59230;54.164;-3.124;2024-01-10T04:55:30;0.93;;;0.60;;
47009;SDS011;59230;54.164;-3.124;2024-01-10T04:57:55;0.60;;;0.60;;
47009;SDS011;59230;54.164;-3.124;2024-01-10T05:00:27;0.80;;;0.70;;
47009;SDS011;59230;54.164;-3.124;2024-01-10T05:02:55;0.90;;;0.80;;
47009;SDS011;59230;54.164;-3.124;2024-01-10T05:05:21;1.00;;;0.80;;
47009;SDS011;59230;54.164;-3.124;2024-01-10T05:07:51;1.45;;;1.15;;
47009;SDS011;59230;54.164;-3.124;2024-01-10T05:10:17;3.10;;;1.20;;
47009;SDS011;59230;54.164;-3.124;2024-01-10T05:12:42;1.20;;;0.90;;
47009;SDS011;59230;54.164;-3.124;2024-01-10T05:15:08;2.47;;;0.73;;
47009;SDS011;59230;54.164;-3.124;2024-01-10T05:17:34;1.27;;;1.00;;
47009;SDS011;59230;54.164;-3.124;2024-01-10T05:20:00;1.15;;;0.82;;
47009;SDS011;59230;54.164;-3.124;2024-01-10T05:22:26;1.23;;;1.00;;
47009;SDS011;59230;54.164;-3.124;2024-01-10T05:24:54;1.85;;;0.98;;
47009;SDS011;59230;54.164;-3.124;2024-01-10T05:27:20;1.48;;;0.90;;
47009;SDS011;59230;54.164;-3.124;2024-01-10T05:29:47;0.98;;;0.80;;
47009;SDS011;59230;54.164;-3.124;2024-01-10T05:32:17;2.33;;;0.80;;
47009;SDS011;59230;54.164;-3.124;2024-01-10T05:34:44;1.00;;;0.90;;
47009;SDS011;59230;54.164;-3.124;2024-01-10T05:37:09;1.98;;;1.10;;
47009;SDS011;59230;54.164;-3.124;2024-01-10T05:39:37;1.13;;;0.93;;
47009;SDS011;59230;54.164;-3.124;2024-01-10T05:42:07;7.03;;;1.30;;
47009;SDS011;59230;54.164;-3.124;2024-01-10T05:44:34;1.50;;;1.10;;
47009;SDS011;59230;54.164;-3.124;2024-01-10T05:47:02;1.00;;;0.88;;
47009;SDS011;59230;54.164;-3.124;2024-01-10T05:49:28;1.90;;;1.00;;
47009;SDS011;59230;54.164;-3.124;2024-01-10T05:51:54;1.65;;;0.95;;
47009;SDS011;59230;54.164;-3.124;2024-01-10T05:54:20;2.17;;;1.05;;
47009;SDS011;59230;54.164;-3.124;2024-01-10T05:56:45;1.27;;;0.90;;
47009;SDS011;59230;54.164;-3.124;2024-01-10T05:59:11;3.60;;;0.80;;
47009;SDS011;59230;54.164;-3.124;2024-01-10T06:01:37;1.80;;;1.10;;
47009;SDS011;59230;54.164;-3.124;2024-01-10T06:04:04;1.48;;;0.80;;
47009;SDS011;59230;54.164;-3.124;2024-01-10T06:06:30;1.85;;;1.00;;
47009;SDS011;59230;54.164;-3.124;2024-01-10T06:08:57;4.63;;;0.98;;
47009;SDS011;59230;54.164;-3.124;2024-01-10T06:11:23;3.13;;;0.75;;
47009;SDS011;59230;54.164;-3.124;2024-01-10T06:13:51;2.45;;;1.10;;
47009;SDS011;59230;54.164;-3.124;2024-01-10T06:16:20;1.52;;;1.00;;
47009;SDS011;59230;54.164;-3.124;2024-01-10T06:18:48;1.40;;;0.90;;
47009;SDS011;59230;54.164;-3.124;2024-01-10T06:21:14;4.38;;;1.00;;
47009;SDS011;59230;54.164;-3.124;2024-01-10T06:23:40;1.60;;;0.90;;
47009;SDS011;59230;54.164;-3.124;2024-01-10T06:26:06;3.97;;;1.00;;
47009;SDS011;59230;54.164;-3.124;2024-01-10T06:28:34;1.42;;;0.85;;
47009;SDS011;59230;54.164;-3.124;2024-01-10T06:31:00;3.45;;;1.17;;
47009;SDS011;59230;54.164;-3.124;2024-01-10T06:33:26;1.17;;;0.90;;
47009;SDS011;59230;54.164;-3.124;2024-01-10T06:35:54;2.75;;;1.02;;
47009;SDS011;59230;54.164;-3.124;2024-01-10T06:38:21;3.53;;;1.00;;
47009;SDS011;59230;54.164;-3.124;2024-01-10T06:40:49;2.58;;;1.00;;
47009;SDS011;59230;54.164;-3.124;2024-01-10T06:43:17;4.03;;;1.67;;
47009;SDS011;59230;54.164;-3.124;2024-01-10T06:45:43;4.35;;;1.20;;
47009;SDS011;59230;54.164;-3.124;2024-01-10T06:48:13;2.13;;;1.02;;
47009;SDS011;59230;54.164;-3.124;2024-01-10T06:50:40;3.65;;;1.10;;
47009;SDS011;59230;54.164;-3.124;2024-01-10T06:53:11;3.70;;;1.40;;
47009;SDS011;59230;54.164;-3.124;2024-01-10T06:55:37;16.83;;;7.15;;
47009;SDS011;59230;54.164;-3.124;2024-01-10T06:58:04;7.60;;;2.78;;
47009;SDS011;59230;54.164;-3.124;2024-01-10T07:00:31;6.80;;;2.30;;
47009;SDS011;59230;54.164;-3.124;2024-01-10T07:03:01;27.27;;;11.23;;
47009;SDS011;59230;54.164;-3.124;2024-01-10T07:05:27;7.13;;;3.03;;
47009;SDS011;59230;54.164;-3.124;2024-01-10T07:07:53;12.82;;;4.60;;
47009;SDS011;59230;54.164;-3.124;2024-01-10T07:10:19;3.70;;;1.00;;
47009;SDS011;59230;54.164;-3.124;2024-01-10T07:12:45;14.75;;;5.20;;
47009;SDS011;59230;54.164;-3.124;2024-01-10T07:15:12;69.68;;;26.25;;
47009;SDS011;59230;54.164;-3.124;2024-01-10T07:17:38;38.13;;;13.90;;
47009;SDS011;59230;54.164;-3.124;2024-01-10T07:20:06;27.58;;;9.20;;
47009;SDS011;59230;54.164;-3.124;2024-01-10T07:22:32;9.13;;;2.97;;
47009;SDS011;59230;54.164;-3.124;2024-01-10T07:24:58;5.65;;;1.33;;
47009;SDS011;59230;54.164;-3.124;2024-01-10T07:27:23;14.55;;;3.78;;
47009;SDS011;59230;54.164;-3.124;2024-01-10T07:29:49;19.75;;;7.22;;
47009;SDS011;59230;54.164;-3.124;2024-01-10T07:32:18;21.55;;;6.88;;
47009;SDS011;59230;54.164;-3.124;2024-01-10T07:34:44;1.58;;;0.90;;
47009;SDS011;59230;54.164;-3.124;2024-01-10T07:37:10;6.43;;;1.73;;
47009;SDS011;59230;54.164;-3.124;2024-01-10T07:39:36;28.15;;;8.75;;
47009;SDS011;59230;54.164;-3.124;2024-01-10T07:42:04;29.38;;;10.55;;
47009;SDS011;59230;54.164;-3.124;2024-01-10T07:44:32;22.75;;;8.27;;
47009;SDS011;59230;54.164;-3.124;2024-01-10T07:46:58;9.73;;;3.35;;
47009;SDS011;59230;54.164;-3.124;2024-01-10T07:49:23;31.92;;;13.43;;
47009;SDS011;59230;54.164;-3.124;2024-01-10T07:51:50;19.70;;;8.07;;
47009;SDS011;59230;54.164;-3.124;2024-01-10T07:54:16;10.68;;;4.82;;
47009;SDS011;59230;54.164;-3.124;2024-01-10T07:56:42;5.95;;;2.40;;
47009;SDS011;59230;54.164;-3.124;2024-01-10T07:59:08;6.72;;;3.03;;
47009;SDS011;59230;54.164;-3.124;2024-01-10T08:01:34;6.80;;;2.55;;
47009;SDS011;59230;54.164;-3.124;2024-01-10T08:03:59;7.93;;;3.97;;
47009;SDS011;59230;54.164;-3.124;2024-01-10T08:06:26;2.45;;;1.10;;
47009;SDS011;59230;54.164;-3.124;2024-01-10T08:08:53;4.45;;;1.70;;
47009;SDS011;59230;54.164;-3.124;2024-01-10T08:11:19;3.15;;;1.58;;
47009;SDS011;59230;54.164;-3.124;2024-01-10T08:13:45;6.70;;;2.78;;
47009;SDS011;59230;54.164;-3.124;2024-01-10T08:16:11;2.58;;;1.45;;
47009;SDS011;59230;54.164;-3.124;2024-01-10T08:18:38;3.35;;;1.50;;
47009;SDS011;59230;54.164;-3.124;2024-01-10T08:21:05;4.15;;;1.20;;
47009;SDS011;59230;54.164;-3.124;2024-01-10T08:23:32;4.28;;;1.40;;
47009;SDS011;59230;54.164;-3.124;2024-01-10T08:25:59;2.45;;;1.10;;
47009;SDS011;59230;54.164;-3.124;2024-01-10T08:28:25;2.72;;;1.20;;
47009;SDS011;59230;54.164;-3.124;2024-01-10T08:30:53;3.30;;;1.10;;
47009;SDS011;59230;54.164;-3.124;2024-01-10T08:33:18;4.82;;;1.27;;
47009;SDS011;59230;54.164;-3.124;2024-01-10T08:35:45;3.47;;;1.15;;
47009;SDS011;59230;54.164;-3.124;2024-01-10T08:38:14;1.60;;;1.30;;
47009;SDS011;59230;54.164;-3.124;2024-01-10T08:40:42;2.25;;;1.00;;
47009;SDS011;59230;54.164;-3.124;2024-01-10T08:43:11;2.78;;;0.80;;
47009;SDS011;59230;54.164;-3.124;2024-01-10T08:45:38;3.50;;;0.80;;
47009;SDS011;59230;54.164;-3.124;2024-01-10T08:48:06;3.72;;;0.80;;
47009;SDS011;59230;54.164;-3.124;2024-01-10T08:50:35;4.28;;;0.95;;
47009;SDS011;59230;54.164;-3.124;2024-01-10T08:53:03;1.42;;;0.63;;
47009;SDS011;59230;54.164;-3.124;2024-01-10T08:55:32;2.47;;;1.40;;
47009;SDS011;59230;54.164;-3.124;2024-01-10T08:58:02;2.45;;;0.70;;
47009;SDS011;59230;54.164;-3.124;2024-01-10T09:00:28;3.95;;;0.70;;
47009;SDS011;59230;54.164;-3.124;2024-01-10T09:02:57;4.63;;;0.90;;
47009;SDS011;59230;54.164;-3.124;2024-01-10T09:05:23;1.63;;;0.85;;
47009;SDS011;59230;54.164;-3.124;2024-01-10T09:07:49;5.18;;;1.00;;
47009;SDS011;59230;54.164;-3.124;2024-01-10T09:10:16;7.50;;;1.10;;
47009;SDS011;59230;54.164;-3.124;2024-01-10T09:12:47;3.13;;;1.03;;
47009;SDS011;59230;54.164;-3.124;2024-01-10T09:15:13;3.72;;;1.73;;
47009;SDS011;59230;54.164;-3.124;2024-01-10T09:17:41;3.80;;;1.00;;
47009;SDS011;59230;54.164;-3.124;2024-01-10T09:20:08;1.83;;;0.80;;
47009;SDS011;59230;54.164;-3.124;2024-01-10T09:22:35;2.63;;;1.13;;
47009;SDS011;59230;54.164;-3.124;2024-01-10T09:25:02;2.53;;;0.93;;
47009;SDS011;59230;54.164;-3.124;2024-01-10T09:27:33;5.63;;;1.10;;
47009;SDS011;59230;54.164;-3.124;2024-01-10T09:30:01;2.03;;;1.10;;
47009;SDS011;59230;54.164;-3.124;2024-01-10T09:32:27;4.15;;;1.00;;
47009;SDS011;59230;54.164;-3.124;2024-01-10T09:34:55;1.88;;;0.70;;
47009;SDS011;59230;54.164;-3.124;2024-01-10T09:37:22;1.88;;;1.05;;
47009;SDS011;59230;54.164;-3.124;2024-01-10T09:39:48;1.73;;;0.88;;
47009;SDS011;59230;54.164;-3.124;2024-01-10T09:42:15;3.42;;;1.30;;
47009;SDS011;59230;54.164;-3.124;2024-01-10T09:44:43;4.70;;;1.52;;
47009;SDS011;59230;54.164;-3.124;2024-01-10T09:47:09;4.15;;;1.40;;
47009;SDS011;59230;54.164;-3.124;2024-01-10T09:49:35;2.20;;;1.23;;
47009;SDS011;59230;54.164;-3.124;2024-01-10T09:52:03;3.65;;;1.40;;
47009;SDS011;59230;54.164;-3.124;2024-01-10T09:54:32;6.88;;;1.40;;
47009;SDS011;59230;54.164;-3.124;2024-01-10T09:57:03;6.32;;;1.38;;
47009;SDS011;59230;54.164;-3.124;2024-01-10T09:59:33;4.68;;;1.20;;
47009;SDS011;59230;54.164;-3.124;2024-01-10T10:01:59;6.65;;;1.38;;
47009;SDS011;59230;54.164;-3.124;2024-01-10T10:04:27;2.00;;;1.30;;
47009;SDS011;59230;54.164;-3.124;2024-01-10T10:07:00;4.30;;;1.60;;
47009;SDS011;59230;54.164;-3.124;2024-01-10T10:09:26;3.20;;;1.63;;
47009;SDS011;59230;54.164;-3.124;2024-01-10T10:11:54;5.55;;;2.30;;
47009;SDS011;59230;54.164;-3.124;2024-01-10T10:14:24;4.35;;;2.10;;
47009;SDS011;59230;54.164;-3.124;2024-01-10T10:16:53;5.43;;;2.47;;
47009;SDS011;59230;54.164;-3.124;2024-01-10T10:19:22;7.20;;;2.63;;
47009;SDS011;59230;54.164;-3.124;2024-01-10T10:21:50;6.88;;;2.17;;
47009;SDS011;59230;54.164;-3.124;2024-01-10T10:24:16;6.15;;;1.77;;
47009;SDS011;59230;54.164;-3.124;2024-01-10T10:26:45;3.15;;;1.30;;
47009;SDS011;59230;54.164;-3.124;2024-01-10T10:29:17;2.10;;;1.23;;
47009;SDS011;59230;54.164;-3.124;2024-01-10T10:31:48;1.95;;;1.23;;
47009;SDS011;59230;54.164;-3.124;2024-01-10T10:34:20;2.85;;;1.05;;
47009;SDS011;59230;54.164;-3.124;2024-01-10T10:36:48;3.03;;;1.10;;
47009;SDS011;59230;54.164;-3.124;2024-01-10T10:39:16;1.63;;;0.95;;
47009;SDS011;59230;54.164;-3.124;2024-01-10T10:41:42;1.75;;;0.90;;
47009;SDS011;59230;54.164;-3.124;2024-01-10T10:44:08;4.68;;;1.35;;
47009;SDS011;59230;54.164;-3.124;2024-01-10T10:46:35;2.85;;;1.10;;
47009;SDS011;59230;54.164;-3.124;2024-01-10T10:49:04;5.63;;;1.45;;
47009;SDS011;59230;54.164;-3.124;2024-01-10T10:51:34;4.65;;;1.45;;
47009;SDS011;59230;54.164;-3.124;2024-01-10T10:54:00;4.75;;;1.58;;
47009;SDS011;59230;54.164;-3.124;2024-01-10T10:56:28;4.20;;;2.03;;
47009;SDS011;59230;54.164;-3.124;2024-01-10T10:58:56;2.10;;;0.98;;
47009;SDS011;59230;54.164;-3.124;2024-01-10T11:01:22;32.92;;;11.75;;
47009;SDS011;59230;54.164;-3.124;2024-01-10T11:03:54;5.43;;;2.10;;
47009;SDS011;59230;54.164;-3.124;2024-01-10T11:06:23;6.53;;;2.60;;
47009;SDS011;59230;54.164;-3.124;2024-01-10T11:14:17;5.40;;;1.08;;
47009;SDS011;59230;54.164;-3.124;2024-01-10T11:25:25;9.00;;;1.88;;
47009;SDS011;59230;54.164;-3.124;2024-01-10T11:30:34;5.10;;;1.40;;
47009;SDS011;59230;54.164;-3.124;2024-01-10T11:33:30;3.92;;;1.50;;
47009;SDS011;59230;54.164;-3.124;2024-01-10T11:36:18;3.42;;;1.35;;
47009;SDS011;59230;54.164;-3.124;2024-01-10T11:38:54;2.55;;;1.20;;
47009;SDS011;59230;54.164;-3.124;2024-01-10T11:41:33;5.68;;;1.45;;
47009;SDS011;59230;54.164;-3.124;2024-01-10T11:46:37;2.58;;;1.20;;
47009;SDS011;59230;54.164;-3.124;2024-01-10T11:49:12;1.92;;;1.40;;
47009;SDS011;59230;54.164;-3.124;2024-01-10T11:51:47;3.90;;;1.30;;
47009;SDS011;59230;54.164;-3.124;2024-01-10T11:57:07;3.40;;;1.50;;
47009;SDS011;59230;54.164;-3.124;2024-01-10T11:59:41;2.35;;;1.73;;
47009;SDS011;59230;54.164;-3.124;2024-01-10T12:02:16;3.40;;;1.60;;
47009;SDS011;59230;54.164;-3.124;2024-01-10T12:04:45;2.63;;;1.38;;
47009;SDS011;59230;54.164;-3.124;2024-01-10T12:07:13;3.67;;;1.50;;
47009;SDS011;59230;54.164;-3.124;2024-01-10T12:09:40;7.40;;;1.40;;
47009;SDS011;59230;54.164;-3.124;2024-01-10T12:12:09;3.92;;;1.70;;
47009;SDS011;59230;54.164;-3.124;2024-01-10T12:14:37;4.60;;;1.65;;
47009;SDS011;59230;54.164;-3.124;2024-01-10T12:17:04;6.70;;;1.63;;
47009;SDS011;59230;54.164;-3.124;2024-01-10T12:19:36;4.13;;;1.95;;
47009;SDS011;59230;54.164;-3.124;2024-01-10T12:24:43;3.60;;;1.40;;
47009;SDS011;59230;54.164;-3.124;2024-01-10T12:27:17;3.67;;;1.60;;
47009;SDS011;59230;54.164;-3.124;2024-01-10T12:29:47;3.25;;;1.50;;
47009;SDS011;59230;54.164;-3.124;2024-01-10T12:32:17;4.30;;;1.67;;
47009;SDS011;59230;54.164;-3.124;2024-01-10T12:34:47;5.28;;;1.40;;
47009;SDS011;59230;54.164;-3.124;2024-01-10T12:37:13;2.40;;;1.27;;
47009;SDS011;59230;54.164;-3.124;2024-01-10T12:39:39;3.28;;;1.50;;
47009;SDS011;59230;54.164;-3.124;2024-01-10T12:42:05;4.25;;;1.75;;
47009;SDS011;59230;54.164;-3.124;2024-01-10T12:44:31;2.22;;;1.30;;
47009;SDS011;59230;54.164;-3.124;2024-01-10T12:46:59;4.38;;;1.50;;
47009;SDS011;59230;54.164;-3.124;2024-01-10T12:49:25;5.95;;;1.58;;
47009;SDS011;59230;54.164;-3.124;2024-01-10T12:51:52;3.38;;;1.40;;
47009;SDS011;59230;54.164;-3.124;2024-01-10T12:54:18;3.45;;;1.35;;
47009;SDS011;59230;54.164;-3.124;2024-01-10T12:56:45;3.40;;;1.60;;
47009;SDS011;59230;54.164;-3.124;2024-01-10T12:59:14;3.47;;;1.88;;
47009;SDS011;59230;54.164;-3.124;2024-01-10T13:01:39;3.85;;;1.70;;
47009;SDS011;59230;54.164;-3.124;2024-01-10T13:04:06;5.22;;;1.75;;
47009;SDS011;59230;54.164;-3.124;2024-01-10T13:06:32;4.18;;;2.00;;
47009;SDS011;59230;54.164;-3.124;2024-01-10T13:08:57;4.75;;;2.03;;
47009;SDS011;59230;54.164;-3.124;2024-01-10T13:11:23;3.80;;;1.85;;
47009;SDS011;59230;54.164;-3.124;2024-01-10T13:13:50;5.13;;;2.22;;
47009;SDS011;59230;54.164;-3.124;2024-01-10T13:16:19;6.72;;;2.00;;
47009;SDS011;59230;54.164;-3.124;2024-01-10T13:18:47;6.15;;;1.90;;
47009;SDS011;59230;54.164;-3.124;2024-01-10T13:21:18;4.00;;;1.95;;
47009;SDS011;59230;54.164;-3.124;2024-01-10T13:23:45;6.00;;;1.90;;
47009;SDS011;59230;54.164;-3.124;2024-01-10T13:26:12;6.60;;;1.88;;
47009;SDS011;59230;54.164;-3.124;2024-01-10T13:28:38;2.97;;;1.83;;
47009;SDS011;59230;54.164;-3.124;2024-01-10T13:31:08;3.47;;;1.63;;
47009;SDS011;59230;54.164;-3.124;2024-01-10T13:33:35;7.40;;;1.92;;
47009;SDS011;59230;54.164;-3.124;2024-01-10T13:36:03;6.35;;;1.77;;
47009;SDS011;59230;54.164;-3.124;2024-01-10T13:38:30;2.47;;;1.60;;
47009;SDS011;59230;54.164;-3.124;2024-01-10T13:40:57;4.40;;;2.00;;
47009;SDS011;59230;54.164;-3.124;2024-01-10T13:43:25;6.93;;;2.20;;
47009;SDS011;59230;54.164;-3.124;2024-01-10T13:45:52;5.10;;;2.20;;
47009;SDS011;59230;54.164;-3.124;2024-01-10T13:48:19;5.80;;;1.75;;
47009;SDS011;59230;54.164;-3.124;2024-01-10T13:50:49;3.95;;;2.13;;
47009;SDS011;59230;54.164;-3.124;2024-01-10T13:53:14;4.15;;;2.00;;
47009;SDS011;59230;54.164;-3.124;2024-01-10T13:55:40;4.47;;;2.13;;
47009;SDS011;59230;54.164;-3.124;2024-01-10T13:58:08;3.80;;;2.10;;
47009;SDS011;59230;54.164;-3.124;2024-01-10T14:00:35;5.50;;;2.40;;
47009;SDS011;59230;54.164;-3.124;2024-01-10T14:03:02;4.75;;;2.40;;
47009;SDS011;59230;54.164;-3.124;2024-01-10T14:05:28;4.28;;;2.25;;
47009;SDS011;59230;54.164;-3.124;2024-01-10T14:07:56;3.80;;;1.85;;
47009;SDS011;59230;54.164;-3.124;2024-01-10T14:10:23;3.15;;;1.80;;
47009;SDS011;59230;54.164;-3.124;2024-01-10T14:12:50;2.63;;;1.63;;
47009;SDS011;59230;54.164;-3.124;2024-01-10T14:15:17;2.30;;;1.60;;
47009;SDS011;59230;54.164;-3.124;2024-01-10T14:17:45;5.55;;;1.80;;
47009;SDS011;59230;54.164;-3.124;2024-01-10T14:20:12;3.40;;;1.65;;
47009;SDS011;59230;54.164;-3.124;2024-01-10T14:22:40;2.60;;;1.30;;
47009;SDS011;59230;54.164;-3.124;2024-01-10T14:25:12;5.35;;;1.65;;
47009;SDS011;59230;54.164;-3.124;2024-01-10T14:27:41;3.85;;;1.88;;
47009;SDS011;59230;54.164;-3.124;2024-01-10T14:30:07;4.68;;;1.77;;
47009;SDS011;59230;54.164;-3.124;2024-01-10T14:32:33;6.82;;;1.80;;
47009;SDS011;59230;54.164;-3.124;2024-01-10T14:35:03;2.42;;;1.55;;
47009;SDS011;59230;54.164;-3.124;2024-01-10T14:37:30;5.40;;;1.58;;
47009;SDS011;59230;54.164;-3.124;2024-01-10T14:39:57;1.85;;;1.50;;
47009;SDS011;59230;54.164;-3.124;2024-01-10T14:42:24;2.25;;;1.35;;
47009;SDS011;59230;54.164;-3.124;2024-01-10T14:44:50;5.72;;;1.80;;
47009;SDS011;59230;54.164;-3.124;2024-01-10T14:47:17;2.80;;;1.85;;
47009;SDS011;59230;54.164;-3.124;2024-01-10T14:49:56;5.57;;;2.75;;
47009;SDS011;59230;54.164;-3.124;2024-01-10T14:52:25;4.43;;;2.40;;
47009;SDS011;59230;54.164;-3.124;2024-01-10T14:54:51;5.15;;;2.90;;
47009;SDS011;59230;54.164;-3.124;2024-01-10T14:57:19;4.75;;;2.83;;
47009;SDS011;59230;54.164;-3.124;2024-01-10T14:59:45;2.83;;;2.20;;